createdAt,value
2023-01-17T00:03:15.673Z,100.00
2023-01-17T00:07:43.279Z,100.00
2023-01-17T00:11:47.864Z,100.00
2023-01-17T00:15:52.491Z,100.00
2023-01-17T00:20:13.510Z,100.00
2023-01-17T00:24:33.660Z,100.00
2023-01-17T00:28:37.104Z,100.00
2023-01-17T00:32:39.765Z,100.00
2023-01-17T00:36:41.593Z,100.00
2023-01-17T00:40:46.529Z,100.00
2023-01-17T00:45:06.481Z,100.00
2023-01-17T00:49:28.721Z,100.00
2023-01-17T00:53:49.413Z,100.00
2023-01-17T00:58:09.606Z,100.00
2023-01-17T01:02:30.376Z,100.00
2023-01-17T01:06:51.828Z,100.00
2023-01-17T01:11:12.498Z,100.00
2023-01-17T01:15:32.765Z,100.00
2023-01-17T01:19:53.378Z,100.00
2023-01-17T01:24:14.634Z,100.00
2023-01-17T01:28:35.234Z,100.00
2023-01-17T01:32:55.965Z,100.00
2023-01-17T01:36:59.175Z,100.00
2023-01-17T01:41:03.958Z,100.00
2023-01-17T01:45:18.437Z,100.00
2023-01-17T01:49:25.335Z,100.00
2023-01-17T01:53:30.318Z,100.00
2023-01-17T01:57:39.736Z,100.00
2023-01-17T02:01:43.003Z,100.00
2023-01-17T02:05:48.873Z,100.00
2023-01-17T02:09:55.614Z,100.00
2023-01-17T02:14:00.482Z,100.00
2023-01-17T02:18:15.380Z,100.00
2023-01-17T02:22:58.373Z,100.00
2023-01-17T02:27:17.851Z,100.00
2023-01-17T02:31:28.408Z,100.00
2023-01-17T02:35:40.057Z,100.00
2023-01-17T02:39:50.403Z,100.00
2023-01-17T02:43:55.314Z,100.00
2023-01-17T02:48:00.169Z,100.00
2023-01-17T02:52:22.831Z,100.00
2023-01-17T02:56:40.019Z,100.00
2023-01-17T03:00:59.388Z,100.00
2023-01-17T03:05:09.421Z,100.00
2023-01-17T03:09:12.228Z,100.00
2023-01-17T03:13:15.929Z,100.00
2023-01-17T03:17:19.302Z,100.00
2023-01-17T03:21:24.242Z,100.00
2023-01-17T03:25:27.497Z,100.00
2023-01-17T03:29:30.809Z,100.00
2023-01-17T03:33:33.987Z,100.00
2023-01-17T03:37:38.528Z,100.00
2023-01-17T03:41:41.619Z,100.00
2023-01-17T03:45:45.145Z,100.00
2023-01-17T03:49:47.996Z,100.00
2023-01-17T03:53:53.025Z,100.00
2023-01-17T03:57:56.593Z,100.00
2023-01-17T04:02:00.709Z,100.00
2023-01-17T04:06:03.934Z,100.00
2023-01-17T04:10:09.457Z,100.00
2023-01-17T04:14:12.471Z,100.00
2023-01-17T04:18:16.071Z,100.00
2023-01-17T04:22:19.228Z,100.00
2023-01-17T04:26:23.969Z,100.00
2023-01-17T04:30:27.776Z,100.00
2023-01-17T04:34:32.851Z,100.00
2023-01-17T04:38:36.635Z,100.00
2023-01-17T04:42:41.236Z,100.00
2023-01-17T04:46:45.066Z,100.00
2023-01-17T04:50:48.018Z,100.00
2023-01-17T04:54:50.891Z,100.00
2023-01-17T04:58:57.770Z,100.00
2023-01-17T05:03:01.193Z,100.00
2023-01-17T05:07:04.065Z,100.00
2023-01-17T05:11:08.066Z,100.00
2023-01-17T05:15:12.938Z,100.00
2023-01-17T05:19:17.000Z,100.00
2023-01-17T05:23:20.241Z,100.00
2023-01-17T05:27:23.415Z,100.00
2023-01-17T05:31:27.954Z,100.00
2023-01-17T05:35:34.098Z,100.00
2023-01-17T05:39:37.247Z,100.00
2023-01-17T05:43:40.399Z,100.00
2023-01-17T05:47:45.167Z,100.00
2023-01-17T05:51:48.208Z,100.00
2023-01-17T05:55:51.391Z,100.00
2023-01-17T05:59:54.392Z,100.00
2023-01-17T06:03:58.775Z,100.00
2023-01-17T06:08:04.974Z,100.00
2023-01-17T06:12:07.967Z,100.00
2023-01-17T06:16:11.072Z,100.00
2023-01-17T06:20:15.528Z,100.00
2023-01-17T06:24:18.695Z,100.00
2023-01-17T06:28:24.054Z,100.00
2023-01-17T06:32:27.299Z,100.00
2023-01-17T06:36:32.626Z,100.00
2023-01-17T06:40:35.868Z,100.00
2023-01-17T06:44:38.979Z,100.00
2023-01-17T06:48:43.829Z,100.00
2023-01-17T06:52:56.568Z,100.00
2023-01-17T06:57:00.176Z,100.00
2023-01-17T07:01:08.324Z,100.00
2023-01-17T07:05:13.880Z,100.00
2023-01-17T07:09:18.565Z,100.00
2023-01-17T07:13:22.814Z,100.00
2023-01-17T07:17:25.751Z,100.00
2023-01-17T07:21:29.116Z,100.00
2023-01-17T07:25:33.825Z,100.00
2023-01-17T07:29:36.836Z,100.00
2023-01-17T07:33:39.593Z,100.00
2023-01-17T07:37:49.126Z,100.00
2023-01-17T07:41:53.701Z,100.00
2023-01-17T07:45:56.763Z,100.00
2023-01-17T07:50:01.767Z,100.00
2023-01-17T07:54:04.897Z,100.00
2023-01-17T07:58:11.471Z,100.00
2023-01-17T08:02:19.105Z,100.00
2023-01-17T08:06:24.699Z,100.00
2023-01-17T08:10:27.582Z,100.00
2023-01-17T08:14:32.302Z,100.00
2023-01-17T08:18:35.590Z,100.00
2023-01-17T08:22:38.474Z,100.00
2023-01-17T08:26:41.846Z,100.00
2023-01-17T08:30:46.096Z,100.00
2023-01-17T08:34:48.962Z,100.00
2023-01-17T08:38:53.027Z,100.00
2023-01-17T08:42:56.404Z,100.00
2023-01-17T08:47:00.803Z,100.00
2023-01-17T08:51:04.620Z,100.00
2023-01-17T08:55:10.508Z,100.00
2023-01-17T08:59:13.737Z,100.00
2023-01-17T09:03:18.368Z,100.00
2023-01-17T09:07:22.398Z,100.00
2023-01-17T09:11:25.785Z,100.00
2023-01-17T09:15:29.204Z,100.00
2023-01-17T09:19:33.490Z,100.00
2023-01-17T09:23:37.739Z,100.00
2023-01-17T09:27:41.177Z,100.00
2023-01-17T09:31:44.160Z,100.00
2023-01-17T09:35:48.649Z,100.00
2023-01-17T09:39:51.772Z,100.00
2023-01-17T09:44:00.881Z,100.00
2023-01-17T09:48:14.208Z,100.00
2023-01-17T09:52:24.072Z,100.00
2023-01-17T09:56:33.006Z,99.49
2023-01-17T10:00:51.993Z,100.00
2023-01-17T10:05:13.413Z,98.05
2023-01-17T10:09:53.735Z,95.30
2023-01-17T10:14:04.731Z,96.62
2023-01-17T10:18:33.833Z,94.15
2023-01-17T10:22:52.183Z,92.62
2023-01-17T10:26:58.913Z,93.33
2023-01-17T10:31:05.640Z,90.39
2023-01-17T10:35:21.724Z,91.28
2023-01-17T10:39:26.223Z,89.61
2023-01-17T10:43:41.714Z,91.28
2023-01-17T10:47:49.925Z,88.19
2023-01-17T10:52:17.436Z,86.94
2023-01-17T10:56:27.405Z,89.69
2023-01-17T11:00:47.814Z,85.64
2023-01-17T11:04:54.799Z,87.31
2023-01-17T11:09:00.252Z,86.84
2023-01-17T11:13:05.571Z,86.17
2023-01-17T11:17:12.549Z,87.63
2023-01-17T11:21:21.001Z,85.88
2023-01-17T11:25:34.115Z,84.49
2023-01-17T11:29:39.960Z,86.62
2023-01-17T11:33:53.990Z,85.22
2023-01-17T11:38:06.708Z,87.36
2023-01-17T11:42:34.346Z,88.04
2023-01-17T11:46:39.219Z,86.83
2023-01-17T11:50:48.696Z,87.42
2023-01-17T11:54:52.731Z,87.45
2023-01-17T11:59:15.360Z,87.75
2023-01-17T12:03:32.870Z,85.26
2023-01-17T12:07:46.110Z,86.87
2023-01-17T12:12:12.099Z,87.00
2023-01-17T12:16:33.133Z,87.62
2023-01-17T12:20:49.185Z,86.78
2023-01-17T12:25:15.138Z,86.84
2023-01-17T12:29:49.964Z,86.40
2023-01-17T12:33:58.667Z,86.34
2023-01-17T12:38:07.622Z,86.39
2023-01-17T12:42:19.847Z,82.54
2023-01-17T12:46:28.823Z,84.80
2023-01-17T12:50:37.748Z,84.97
2023-01-17T12:54:44.352Z,86.07
2023-01-17T12:58:53.361Z,85.81
2023-01-17T13:03:00.807Z,84.23
2023-01-17T13:07:11.453Z,84.68
2023-01-17T13:11:23.492Z,84.70
2023-01-17T13:15:32.396Z,84.35
2023-01-17T13:19:46.889Z,83.53
2023-01-17T13:24:12.454Z,84.62
2023-01-17T13:28:24.010Z,85.45
2023-01-17T13:32:45.129Z,87.10
2023-01-17T13:37:01.860Z,88.45
2023-01-17T13:41:17.463Z,88.23
2023-01-17T13:45:23.035Z,88.36
2023-01-17T13:49:37.058Z,89.54
2023-01-17T13:54:00.322Z,89.67
2023-01-17T13:58:03.447Z,90.54
2023-01-17T14:02:37.552Z,90.81
2023-01-17T14:06:45.613Z,91.07
2023-01-17T14:10:50.661Z,91.67
2023-01-17T14:14:57.153Z,93.36
2023-01-17T14:19:01.854Z,95.26
2023-01-17T14:23:30.653Z,96.30
2023-01-17T14:27:36.989Z,97.29
2023-01-17T14:31:42.034Z,99.19
2023-01-17T14:35:52.844Z,100.00
2023-01-17T14:39:56.764Z,100.00
2023-01-17T14:44:04.137Z,100.00
2023-01-17T14:48:08.911Z,100.00
2023-01-17T14:52:17.684Z,100.00
2023-01-17T14:56:21.870Z,100.00
2023-01-17T15:00:29.459Z,100.00
2023-01-17T15:04:39.914Z,100.00
2023-01-17T15:08:43.566Z,100.00
2023-01-17T15:12:48.021Z,100.00
2023-01-17T15:16:52.302Z,100.00
2023-01-17T15:21:00.358Z,100.00
2023-01-17T15:25:04.475Z,100.00
2023-01-17T15:29:15.998Z,100.00
2023-01-17T15:33:21.318Z,100.00
2023-01-17T15:37:32.843Z,100.00
2023-01-17T15:41:39.457Z,100.00
2023-01-17T15:45:57.169Z,100.00
2023-01-17T15:50:02.966Z,100.00
2023-01-17T15:54:41.898Z,100.00
2023-01-17T15:58:45.294Z,100.00
2023-01-17T16:02:55.452Z,100.00
2023-01-17T16:07:10.104Z,100.00
2023-01-17T16:11:14.497Z,100.00
2023-01-17T16:15:18.570Z,100.00
2023-01-17T16:19:23.385Z,100.00
2023-01-17T16:23:26.646Z,100.00
2023-01-17T16:27:32.514Z,100.00
2023-01-17T16:31:39.051Z,100.00
2023-01-17T16:35:44.149Z,100.00
2023-01-17T16:39:47.287Z,100.00
2023-01-17T16:43:59.477Z,100.00
2023-01-17T16:48:06.874Z,100.00
2023-01-17T16:52:12.110Z,100.00
2023-01-17T16:56:18.396Z,100.00
2023-01-17T17:00:22.916Z,100.00
2023-01-17T17:04:26.034Z,100.00
2023-01-17T17:08:30.966Z,100.00
2023-01-17T17:12:34.452Z,100.00
2023-01-17T17:16:39.245Z,100.00
2023-01-17T17:20:42.870Z,100.00
2023-01-17T17:24:47.501Z,100.00
2023-01-17T17:28:53.183Z,100.00
2023-01-17T17:32:56.190Z,100.00
2023-01-17T17:36:59.343Z,100.00
2023-01-17T17:41:11.099Z,100.00
2023-01-17T17:45:14.488Z,100.00
2023-01-17T17:49:18.262Z,100.00
2023-01-17T17:53:26.335Z,100.00
2023-01-17T17:57:33.482Z,100.00
2023-01-17T18:01:38.441Z,100.00
2023-01-17T18:05:41.899Z,100.00
2023-01-17T18:09:45.436Z,100.00
2023-01-17T18:13:51.597Z,100.00
2023-01-17T18:17:55.728Z,100.00
2023-01-17T18:22:00.047Z,100.00
2023-01-17T18:26:03.279Z,100.00
2023-01-17T18:30:08.912Z,100.00
2023-01-17T18:34:15.482Z,100.00
2023-01-17T18:38:18.953Z,100.00
2023-01-17T18:42:23.441Z,100.00
2023-01-17T18:46:31.883Z,100.00
2023-01-17T18:50:34.655Z,100.00
2023-01-17T18:54:38.072Z,100.00
2023-01-17T18:58:43.367Z,100.00
2023-01-17T19:02:50.211Z,100.00
2023-01-17T19:06:57.274Z,100.00
2023-01-17T19:11:01.096Z,100.00
2023-01-17T19:15:09.506Z,100.00
2023-01-17T19:19:15.968Z,100.00
2023-01-17T19:23:19.055Z,100.00
2023-01-17T19:27:22.249Z,100.00
2023-01-17T19:31:27.318Z,100.00
2023-01-17T19:35:32.114Z,100.00
2023-01-17T19:39:35.666Z,100.00
2023-01-17T19:43:38.536Z,100.00
2023-01-17T19:47:41.977Z,100.00
2023-01-17T19:51:46.879Z,100.00
2023-01-17T19:55:50.041Z,100.00
2023-01-17T19:59:52.710Z,100.00
2023-01-17T20:03:57.740Z,100.00
2023-01-17T20:08:02.287Z,100.00
2023-01-17T20:12:05.510Z,100.00
2023-01-17T20:16:10.593Z,100.00
2023-01-17T20:20:16.375Z,100.00
2023-01-17T20:24:20.742Z,100.00
2023-01-17T20:28:23.827Z,100.00
2023-01-17T20:32:26.845Z,100.00
2023-01-17T20:36:31.841Z,100.00
2023-01-17T20:40:36.724Z,100.00
2023-01-17T20:44:40.119Z,100.00
2023-01-17T20:48:47.658Z,100.00
2023-01-17T20:52:50.643Z,100.00
2023-01-17T20:56:55.739Z,100.00
2023-01-17T21:00:59.840Z,100.00
2023-01-17T21:05:03.992Z,100.00
2023-01-17T21:09:09.096Z,100.00
2023-01-17T21:13:13.584Z,100.00
2023-01-17T21:17:17.569Z,100.00
2023-01-17T21:21:23.353Z,100.00
2023-01-17T21:25:26.397Z,100.00
2023-01-17T21:29:32.864Z,100.00
2023-01-17T21:33:36.323Z,100.00
2023-01-17T21:37:41.315Z,100.00
2023-01-17T21:41:48.040Z,100.00
2023-01-17T21:45:55.142Z,100.00
2023-01-17T21:50:01.189Z,100.00
2023-01-17T21:54:04.297Z,100.00
2023-01-17T21:58:31.308Z,100.00
2023-01-17T22:02:36.119Z,100.00
2023-01-17T22:06:41.019Z,100.00
2023-01-17T22:10:48.077Z,100.00
2023-01-17T22:14:52.075Z,100.00
2023-01-17T22:18:56.527Z,100.00
2023-01-17T22:22:59.778Z,100.00
2023-01-17T22:27:03.195Z,100.00
2023-01-17T22:31:13.160Z,100.00
2023-01-17T22:35:18.438Z,100.00
2023-01-17T22:39:26.325Z,100.00
2023-01-17T22:43:29.594Z,100.00
2023-01-17T22:47:33.312Z,100.00
2023-01-17T22:51:38.301Z,100.00
2023-01-17T22:55:41.585Z,100.00
2023-01-17T22:59:44.904Z,100.00
2023-01-17T23:03:52.497Z,100.00
2023-01-17T23:07:57.312Z,100.00
2023-01-17T23:12:00.480Z,100.00
2023-01-17T23:16:24.005Z,100.00
2023-01-17T23:20:26.781Z,100.00
2023-01-17T23:24:31.464Z,100.00
2023-01-17T23:28:34.239Z,100.00
2023-01-17T23:32:37.746Z,100.00
2023-01-17T23:36:40.686Z,100.00
2023-01-17T23:41:07.250Z,100.00
2023-01-17T23:45:11.491Z,100.00
2023-01-17T23:49:14.699Z,100.00
2023-01-17T23:53:23.419Z,100.00
2023-01-17T23:57:28.018Z,100.00
